Latest Weather Observations for Gladstone Airport

IDQ60801

Issued at 9:35 pm EST Friday 19 September 2014 (issued every 30 minutes, with the page automatically refreshed every 10 minutes)

About weather observations | Map of weather stations | Latest weather observations for QLD | Other Formats
Station Details ID: 039326 Name: GLADSTONE AIRPORT Lat: -23.87 Lon: 151.22 Height: 16.6 m
Data from the previous 72 hours. | See also: Recent months at Gladstone Airport
Date/Time
EST
Temp
°C
App
Temp
°C
Dew
Point
Rel
Hum
%
Delta-T
°C
Wind Press
QNH
hPa
Press
MSL
hPa
Rain
since 9 am
mm
Dir
 
Spd
km/h
Gust
km/h
Spd
kts
Gust
kts
19/09:30pm 20.3 20.0 14.4 69 3.4 N 9 13 5 7 1019.4 1019.4 0.0
19/09:00pm 20.5 20.3 14.8 70 3.3 NNE 9 11 5 6 1019.3 1019.3 0.0
19/08:30pm 20.7 20.9 14.8 69 3.5 N 7 11 4 6 1019.3 1019.3 0.0
19/08:00pm 21.0 20.4 14.6 67 3.7 N 11 17 6 9 1019.0 1019.0 0.0
19/07:30pm 21.5 20.1 14.6 65 4.1 NNE 15 20 8 11 1018.8 1018.8 0.0
19/07:00pm 21.5 20.8 14.2 63 4.2 NE 11 17 6 9 1018.3 1018.3 0.0
19/06:30pm 21.6 20.1 14.3 63 4.3 NNE 15 19 8 10 1017.9 1017.9 0.0
19/06:00pm 21.8 19.7 13.7 60 4.7 NE 17 22 9 12 1017.5 1017.5 0.0
19/05:30pm 22.1 20.0 14.7 63 4.4 NE 19 22 10 12 1017.2 1017.2 0.0
19/05:00pm 22.6 20.3 14.2 59 4.9 NNE 19 26 10 14 1017.0 1017.0 0.0
19/04:30pm 23.3 20.6 13.5 54 5.7 NE 20 28 11 15 1016.5 1016.5 0.0
19/04:00pm 23.3 21.2 15.1 60 4.9 NE 20 30 11 16 1016.4 1016.4 0.0
19/03:30pm 23.0 19.9 14.6 59 5.0 NE 24 30 13 16 1016.3 1016.3 0.0
19/03:00pm 23.2 20.1 14.5 58 5.1 NNE 24 32 13 17 1016.4 1016.4 0.0
19/02:30pm 24.4 21.7 15.6 58 5.3 ENE 24 30 13 16 1016.6 1016.6 0.0
19/02:00pm 24.2 21.0 13.1 50 6.4 NE 22 26 12 14 1016.9 1016.9 0.0
19/01:30pm 24.1 21.7 14.5 55 5.7 ENE 20 28 11 15 1017.3 1017.3 0.0
19/01:00pm 24.9 22.6 14.7 53 6.1 NE 20 32 11 17 1017.6 1017.6 0.0
19/12:30pm 24.5 21.8 14.6 54 5.9 ENE 22 28 12 15 1018.2 1018.2 0.0
19/12:00pm 24.3 21.9 14.4 54 5.9 NE 20 32 11 17 1018.9 1018.9 0.0
19/11:30am 23.8 21.4 14.5 56 5.5 NE 20 26 11 14 1019.6 1019.6 0.0
19/11:00am 24.7 22.5 14.5 53 6.0 NNE 19 24 10 13 1020.0 1020.0 0.0
19/10:30am 24.2 22.3 14.3 54 5.9 ENE 17 22 9 12 1020.5 1020.5 0.0
19/10:00am 23.8 21.8 13.9 54 5.8 ENE 17 20 9 11 1020.9 1020.9 0.0
19/09:30am 22.7 22.2 14.8 61 4.7 ENE 11 17 6 9 1021.1 1021.1 0.0
19/09:00am 22.9 22.8 15.0 61 4.7 E 9 17 5 9 1021.2 1021.2 0.0
19/08:30am 21.9 21.9 13.5 59 4.8 S 6 9 3 5 1021.3 1021.3 0.0
19/08:00am 18.9 17.5 11.0 60 4.3 SSW 9 15 5 8 1021.3 1021.3 0.0
19/07:30am 17.1 15.4 10.0 63 3.7 SSW 9 15 5 8 1021.0 1021.0 0.0
19/07:00am 15.1 12.5 9.2 68 3.0 SSW 13 19 7 10 1020.5 1020.5 0.0
19/06:30am 13.6 11.3 8.9 73 2.4 SSW 11 17 6 9 1020.2 1020.2 0.0
19/06:00am 13.4 11.5 8.9 74 2.3 SW 9 13 5 7 1019.8 1019.8 0.0
19/05:30am 13.5 11.6 9.0 74 2.3 SSW 9 15 5 8 1019.8 1019.8 0.0
19/05:00am 14.3 12.4 8.9 70 2.7 SSW 9 13 5 7 1019.5 1019.5 0.0
19/04:30am 13.8 11.3 9.6 76 2.2 SSW 13 17 7 9 1019.2 1019.2 0.0
19/04:00am 13.6 11.0 9.5 76 2.1 SSW 13 19 7 10 1018.9 1018.9 0.0
19/03:30am 14.1 12.3 9.5 74 2.4 SW 9 13 5 7 1018.7 1018.7 0.0
19/03:00am 14.5 13.2 10.1 75 2.3 SW 7 9 4 5 1018.6 1018.6 0.0
19/02:30am 14.8 14.2 10.4 75 2.3 SSW 4 7 2 4 1018.6 1018.6 0.0
19/02:00am 14.7 13.4 9.9 73 2.5 SSW 7 11 4 6 1018.8 1018.8 0.0
19/01:30am 15.7 13.9 10.9 73 2.6 SSW 11 13 6 7 1019.0 1019.0 0.0
19/01:00am 15.8 14.5 11.2 74 2.5 SSW 9 11 5 6 1019.0 1019.0 0.0
19/12:30am 15.8 14.8 10.3 70 2.9 SSW 6 9 3 5 1019.2 1019.2 0.0
19/12:00am 15.9 16.1 10.7 71 2.8 CALM 0 7 0 4 1019.3 1019.3 0.0
 
Date/Time
EST
Temp
°C
App
Temp
°C
Dew
Point
Rel
Hum
%
Delta-T
°C
Wind Press
QNH
hPa
Press
MSL
hPa
Rain
since 9 am
mm
Dir
 
Spd
km/h
Gust
km/h
Spd
kts
Gust
kts
18/11:30pm 16.2 16.3 11.4 73 2.6 SSW 2 7 1 4 1019.5 1019.5 0.0
18/11:00pm 16.4 15.7 11.3 72 2.7 SSW 6 7 3 4 1019.5 1019.5 0.0
18/10:30pm 16.5 16.9 11.4 72 2.8 CALM 0 0 0 0 1019.5 1019.5 0.0
18/10:00pm 16.6 17.0 11.1 70 2.9 CALM 0 0 0 0 1019.5 1019.5 0.0
18/09:30pm 17.5 18.0 11.5 68 3.3 CALM 0 0 0 0 1019.4 1019.4 0.0
18/09:00pm 17.6 16.8 11.2 66 3.5 S 6 9 3 5 1019.3 1019.3 0.0
18/08:30pm 18.2 17.2 11.0 63 3.9 SSW 7 9 4 5 1019.1 1019.1 0.0
18/08:00pm 18.9 18.0 11.2 61 4.2 S 7 7 4 4 1018.8 1018.8 0.0
18/07:30pm 19.8 19.0 11.0 57 4.8 S 6 7 3 4 1018.5 1018.5 0.0
18/07:00pm 21.2 20.3 11.5 54 5.4 E 7 9 4 5 1018.0 1018.0 0.0
18/06:30pm 21.4 20.4 11.1 52 5.7 ENE 7 9 4 5 1017.6 1017.6 0.0
18/06:00pm 21.8 19.8 10.3 48 6.3 ENE 11 15 6 8 1017.3 1017.3 0.0
18/05:30pm 22.4 19.2 9.9 45 6.8 ENE 17 22 9 12 1017.0 1017.0 0.0
18/05:00pm 23.0 19.8 9.8 43 7.2 NE 17 20 9 11 1016.7 1016.7 0.0
18/04:30pm 23.5 19.7 9.1 40 7.8 NE 19 26 10 14 1016.3 1016.3 0.0
18/04:00pm 24.2 20.4 9.0 38 8.2 ENE 19 26 10 14 1016.0 1016.0 0.0
18/03:30pm 24.3 20.2 8.7 37 8.4 ENE 20 28 11 15 1015.7 1015.7 0.0
18/03:00pm 25.0 20.4 8.1 34 9.0 E 22 32 12 17 1015.7 1015.7 0.0
18/02:30pm 24.9 19.2 6.6 31 9.5 E 26 32 14 17 1015.7 1015.7 0.0
18/02:00pm 24.9 19.9 8.0 34 9.0 ENE 24 28 13 15 1016.0 1016.0 0.0
18/01:30pm 25.9 21.3 6.5 29 10.1 NE 20 26 11 14 1016.3 1016.3 0.0
18/01:00pm 25.7 21.1 8.2 33 9.4 NE 22 32 12 17 1016.9 1016.9 0.0
18/12:30pm 26.2 20.9 6.8 29 10.2 NE 24 32 13 17 1017.2 1017.2 0.0
18/12:00pm 26.0 20.9 3.9 24 11.0 NE 20 26 11 14 1017.6 1017.6 0.0
18/11:30am 27.1 23.6 1.5 19 12.3 SSE 9 17 5 9 1018.1 1018.1 0.0
18/11:00am 25.9 22.0 1.2 20 11.7 SE 11 20 6 11 1018.7 1018.7 0.0
18/10:30am 25.6 21.3 1.0 20 11.6 SSW 13 20 7 11 1019.2 1019.2 0.0
18/10:00am 25.3 21.1 1.4 21 11.3 S 13 20 7 11 1019.6 1019.6 0.0
18/09:30am 24.8 19.9 1.7 22 11.0 S 17 28 9 15 1019.8 1019.8 0.0
18/09:00am 23.4 19.1 3.4 27 9.7 SSW 15 24 8 13 1019.9 1019.9 0.0
18/08:30am 22.4 20.0 4.5 31 8.8 SSE 6 9 3 5 1019.7 1019.7 0.0
18/08:00am 21.2 18.6 6.3 38 7.5 S 9 13 5 7 1019.5 1019.5 0.0
18/07:30am 19.3 16.5 6.8 44 6.3 SSW 11 15 6 8 1019.2 1019.2 0.0
18/07:00am 17.4 16.5 11.2 67 3.3 SSW 7 11 4 6 1018.8 1018.8 0.0
18/06:30am 15.5 14.5 12.3 81 1.7 SW 9 11 5 6 1018.4 1018.4 0.0
18/06:00am 14.6 14.1 12.6 88 1.1 S 7 11 4 6 1017.8 1017.8 0.0
18/05:30am 15.1 15.1 13.5 90 0.9 SSE 6 9 3 5 1017.4 1017.4 0.0
18/05:00am 14.9 14.6 13.4 91 0.8 SSW 7 9 4 5 1016.9 1016.9 0.0
18/04:30am 15.1 16.2 13.6 91 0.8 CALM 0 6 0 3 1016.6 1016.6 0.0
18/04:00am 15.6 15.6 14.1 91 0.8 SSW 7 11 4 6 1016.2 1016.2 0.0
18/03:30am 16.0 16.7 14.5 91 0.9 SW 4 9 2 5 1016.1 1016.1 0.0
18/03:00am 16.4 16.4 15.1 92 0.8 SSW 9 13 5 7 1015.8 1015.8 0.0
18/02:56am 16.4 16.4 15.1 92 0.8 SSW 9 15 5 8 1015.8 1015.8 0.0
18/02:55am 16.4 16.4 15.1 92 0.8 SSW 9 17 5 9 1015.8 1015.8 0.0
18/02:38am 16.6 16.7 15.5 93 0.6 SSW 9 17 5 9 1016.0 1016.0 0.0
18/02:30am 16.4 16.3 14.9 91 0.9 SW 9 13 5 7 1015.7 1015.7 0.0
18/02:00am 17.0 17.0 15.3 90 1.0 SW 9 13 5 7 1015.7 1015.7 0.0
18/01:30am 16.9 17.2 15.1 89 1.0 SW 7 11 4 6 1015.9 1015.9 0.0
18/01:00am 17.1 17.4 15.1 88 1.2 SSW 7 9 4 5 1015.8 1015.8 0.0
18/12:30am 17.3 18.9 14.9 86 1.4 CALM 0 0 0 0 1015.7 1015.7 0.0
18/12:00am 18.5 19.4 16.1 86 1.4 SW 6 7 3 4 1015.8 1015.8 0.0
 
Date/Time
EST
Temp
°C
App
Temp
°C
Dew
Point
Rel
Hum
%
Delta-T
°C
Wind Press
QNH
hPa
Press
MSL
hPa
Rain
since 9 am
mm
Dir
 
Spd
km/h
Gust
km/h
Spd
kts
Gust
kts
17/11:30pm 19.8 21.2 17.4 86 1.5 NW 6 9 3 5 1015.8 1015.8 0.0
17/11:00pm 19.6 20.8 16.8 84 1.7 NNW 6 7 3 4 1015.7 1015.7 0.0
17/10:30pm 19.6 21.3 16.3 81 2.0 N 2 9 1 5 1015.7 1015.7 0.0
17/10:00pm 20.0 20.7 15.6 76 2.6 WNW 6 9 3 5 1015.8 1015.8 0.0
17/09:30pm 20.7 21.0 15.9 74 2.9 NNW 9 11 5 6 1015.7 1015.7 0.0
17/09:00pm 21.1 21.4 15.9 72 3.1 N 9 13 5 7 1015.5 1015.5 0.0
17/08:30pm 21.3 21.2 16.0 72 3.2 NNW 11 13 6 7 1015.4 1015.4 0.0
17/08:00pm 21.7 21.0 16.4 72 3.2 NNW 15 20 8 11 1015.3 1015.3 0.0
17/07:30pm 21.8 20.5 16.7 73 3.1 NNW 19 24 10 13 1014.7 1014.7 0.0
17/07:00pm 22.1 21.3 17.0 73 3.1 N 17 22 9 12 1014.3 1014.3 0.0
17/06:30pm 22.6 21.7 16.9 70 3.5 N 17 24 9 13 1014.1 1014.1 0.0
17/06:00pm 23.3 21.7 16.6 66 4.1 N 20 24 11 13 1013.7 1013.7 0.0
17/05:30pm 24.2 23.5 16.5 62 4.7 N 15 22 8 12 1013.3 1013.3 0.0
17/05:00pm 25.7 24.1 16.0 55 5.9 N 19 26 10 14 1012.8 1012.8 0.0
17/04:30pm 28.0 25.9 14.6 44 8.1 N 19 26 10 14 1012.4 1012.4 0.0
17/04:00pm 28.0 25.9 15.3 46 7.7 NNE 20 32 11 17 1012.0 1012.0 0.0
17/03:30pm 29.0 27.0 14.0 39 9.0 NNE 17 30 9 16 1012.1 1012.1 0.0
17/03:00pm 28.5 26.0 16.1 47 7.7 NNE 24 32 13 17 1012.3 1012.3 0.0
17/02:30pm 29.7 25.9 11.2 31 10.7 N 22 30 12 16 1012.5 1012.5 0.0
17/02:00pm 29.6 26.2 11.2 32 10.6 NNW 20 24 11 13 1012.9 1012.9 0.0
17/01:30pm 29.3 25.9 11.4 33 10.3 NNW 20 28 11 15 1013.4 1013.4 0.0
17/01:00pm 28.6 25.5 11.6 34 9.8 N 19 24 10 13 1013.9 1013.9 0.0
17/12:30pm 27.6 25.0 13.2 41 8.5 N 19 26 10 14 1014.5 1014.5 0.0
17/12:00pm 27.2 24.0 12.0 38 8.8 N 20 28 11 15 1015.1 1015.1 0.0
17/11:30am 27.2 24.4 13.2 42 8.2 NNW 20 32 11 17 1015.6 1015.6 0.0
17/11:00am 25.2 22.9 14.0 49 6.6 N 19 28 10 15 1016.2 1016.2 0.0
17/10:30am 24.9 22.5 13.8 50 6.5 N 19 22 10 12 1016.7 1016.7 0.0
17/10:00am 24.2 22.2 14.0 53 6.0 N 17 22 9 12 1017.1 1017.1 0.0
17/09:30am 23.9 23.1 12.8 49 6.4 WNW 9 17 5 9 1017.6 1017.6 0.0
17/09:00am 22.4 21.6 14.0 59 4.9 N 11 19 6 10 1017.9 1017.9 0.0
17/08:30am 22.2 20.3 15.1 64 4.2 NW 19 24 10 13 1017.9 1017.9 0.0
17/08:00am 19.9 19.9 15.3 75 2.7 W 9 13 5 7 1017.9 1017.9 0.0
17/07:30am 18.0 18.0 15.1 83 1.7 SW 9 15 5 8 1017.7 1017.7 0.0
17/07:00am 16.7 17.2 15.1 90 0.9 SW 6 9 3 5 1017.3 1017.3 0.0
17/06:30am 14.5 14.2 13.4 93 0.6 SSW 7 11 4 6 1016.9 1016.9 0.0
17/06:16am 14.0 13.2 12.9 93 0.6 SSW 9 13 5 7 1016.6 1016.6 0.0
17/06:00am 14.4 13.4 13.3 93 0.6 SW 11 17 6 9 1016.4 1016.4 0.0
17/05:57am 14.3 13.2 13.0 92 0.7 SW 11 17 6 9 1016.3 1016.3 0.0
17/05:30am 14.7 15.6 12.9 89 1.0 CALM 0 0 0 0 1015.9 1015.9 0.0
17/05:00am 15.2 15.1 13.4 89 1.0 SSW 6 9 3 5 1015.7 1015.7 0.0
17/04:30am 15.8 15.7 14.0 89 1.0 SSW 7 7 4 4 1015.3 1015.3 0.0
17/04:00am 16.2 17.6 14.4 89 1.0 CALM 0 0 0 0 1015.0 1015.0 0.0
17/03:53am 16.2 17.6 14.4 89 1.0 CALM 0 0 0 0 1015.0 1015.0 0.0
17/03:30am 15.8 17.1 14.0 89 1.0 CALM 0 0 0 0 1015.1 1015.1 0.0
17/03:27am 15.8 17.1 14.0 89 1.0 CALM 0 0 0 0 1015.1 1015.1 0.0
17/03:00am 15.8 17.1 14.0 89 1.0 CALM 0 0 0 0 1015.1 1015.1 0.0
17/02:30am 16.1 17.3 13.9 87 1.2 CALM 0 0 0 0 1015.1 1015.1 0.0
17/02:00am 16.4 17.7 14.2 87 1.3 CALM 0 0 0 0 1015.3 1015.3 0.0
17/01:30am 17.1 18.2 14.7 86 1.4 NW 2 7 1 4 1015.5 1015.5 0.0
17/01:00am 17.8 18.4 15.4 86 1.4 W 6 7 3 4 1015.6 1015.6 0.0
17/12:30am 18.5 19.2 16.1 86 1.4 NNW 7 9 4 5 1015.9 1015.9 0.0
17/12:00am 18.5 18.8 15.9 85 1.5 NNW 9 11 5 6 1016.3 1016.3 0.0
 
Date/Time
EST
Temp
°C
App
Temp
°C
Dew
Point
Rel
Hum
%
Delta-T
°C
Wind Press
QNH
hPa
Press
MSL
hPa
Rain
since 9 am
mm
Dir
 
Spd
km/h
Gust
km/h
Spd
kts
Gust
kts
16/11:30pm 18.0 19.6 14.9 82 1.8 CALM 0 0 0 0 1016.6 1016.6 0.0
16/11:00pm 18.3 19.9 15.0 81 1.9 CALM 0 6 0 3 1016.8 1016.8 0.0
16/10:30pm 18.9 19.6 15.6 81 1.9 NNW 6 7 3 4 1016.8 1016.8 0.0
16/10:00pm 19.1 19.7 15.8 81 2.0 NW 7 11 4 6 1016.8 1016.8 0.0

Other Formats:

Comma delimited format used in spreadsheet applications
http://www.bom.gov.au/fwo/IDQ60801/IDQ60801.94381.axf

JavaScript Object Notation format (JSON) in row-major order
http://www.bom.gov.au/fwo/IDQ60801/IDQ60801.94381.json